sensor_id;sensor_type;location;lat;lon;timestamp;temperature;humidity
8655;DHT22;13500;52.514;13.462;2022-09-09T16:33:13;24.60;92.40
8655;DHT22;13500;52.514;13.462;2022-09-09T16:35:42;23.30;93.80
8655;DHT22;13500;52.514;13.462;2022-09-09T16:38:11;23.10;94.20
8655;DHT22;13500;52.514;13.462;2022-09-09T16:40:39;22.90;94.30
8655;DHT22;13500;52.514;13.462;2022-09-09T16:43:08;22.70;94.80
8655;DHT22;13500;52.514;13.462;2022-09-09T16:45:42;22.70;95.20
8655;DHT22;13500;52.514;13.462;2022-09-09T16:48:10;22.60;95.60
8655;DHT22;13500;52.514;13.462;2022-09-09T16:50:40;22.50;95.80
8655;DHT22;13500;52.514;13.462;2022-09-09T16:53:08;22.40;96.10
8655;DHT22;13500;52.514;13.462;2022-09-09T16:55:39;22.30;97.50
8655;DHT22;13500;52.514;13.462;2022-09-09T16:58:10;22.10;98.50
8655;DHT22;13500;52.514;13.462;2022-09-09T17:00:39;22.00;99.00
8655;DHT22;13500;52.514;13.462;2022-09-09T17:03:10;21.80;99.60
8655;DHT22;13500;52.514;13.462;2022-09-09T17:05:41;21.80;99.90
8655;DHT22;13500;52.514;13.462;2022-09-09T17:08:09;21.70;99.90
8655;DHT22;13500;52.514;13.462;2022-09-09T17:10:40;21.70;99.90
8655;DHT22;13500;52.514;13.462;2022-09-09T17:13:09;21.50;99.90
8655;DHT22;13500;52.514;13.462;2022-09-09T17:15:42;21.20;99.90
8655;DHT22;13500;52.514;13.462;2022-09-09T17:18:11;21.10;99.90
8655;DHT22;13500;52.514;13.462;2022-09-09T17:20:42;20.70;99.90
8655;DHT22;13500;52.514;13.462;2022-09-09T17:23:13;20.50;99.90
8655;DHT22;13500;52.514;13.462;2022-09-09T17:25:42;20.50;99.90
8655;DHT22;13500;52.514;13.462;2022-09-09T17:28:12;20.40;99.90
8655;DHT22;13500;52.514;13.462;2022-09-09T17:30:41;20.40;99.90
8655;DHT22;13500;52.514;13.462;2022-09-09T17:33:10;20.30;99.90
8655;DHT22;13500;52.514;13.462;2022-09-09T17:35:38;20.20;99.90
8655;DHT22;13500;52.514;13.462;2022-09-09T17:38:07;20.20;99.90
8655;DHT22;13500;52.514;13.462;2022-09-09T17:40:35;20.10;99.90
8655;DHT22;13500;52.514;13.462;2022-09-09T17:43:03;20.10;99.90
8655;DHT22;13500;52.514;13.462;2022-09-09T17:45:32;20.00;99.90
8655;DHT22;13500;52.514;13.462;2022-09-09T17:48:00;19.90;99.90
8655;DHT22;13500;52.514;13.462;2022-09-09T17:50:29;19.70;99.90
8655;DHT22;13500;52.514;13.462;2022-09-09T17:52:58;19.60;99.90
8655;DHT22;13500;52.514;13.462;2022-09-09T17:55:28;19.50;99.90
8655;DHT22;13500;52.514;13.462;2022-09-09T17:57:56;19.30;99.90
8655;DHT22;13500;52.514;13.462;2022-09-09T18:00:25;19.30;99.90
8655;DHT22;13500;52.514;13.462;2022-09-09T18:02:57;19.20;99.90
8655;DHT22;13500;52.514;13.462;2022-09-09T18:05:25;19.10;99.90
8655;DHT22;13500;52.514;13.462;2022-09-09T18:07:53;18.90;99.90
8655;DHT22;13500;52.514;13.462;2022-09-09T18:10:21;18.90;99.90
8655;DHT22;13500;52.514;13.462;2022-09-09T18:12:51;18.70;99.90
8655;DHT22;13500;52.514;13.462;2022-09-09T18:15:19;18.60;99.90
8655;DHT22;13500;52.514;13.462;2022-09-09T18:18:08;18.60;99.90
8655;DHT22;13500;52.514;13.462;2022-09-09T18:20:36;18.50;99.90
8655;DHT22;13500;52.514;13.462;2022-09-09T18:23:04;18.50;99.90
8655;DHT22;13500;52.514;13.462;2022-09-09T18:25:37;18.50;99.90
8655;DHT22;13500;52.514;13.462;2022-09-09T18:28:06;18.40;99.90
8655;DHT22;13500;52.514;13.462;2022-09-09T18:30:38;18.40;99.90
8655;DHT22;13500;52.514;13.462;2022-09-09T18:33:06;18.30;99.90
8655;DHT22;13500;52.514;13.462;2022-09-09T18:35:35;18.20;99.90
8655;DHT22;13500;52.514;13.462;2022-09-09T18:38:04;18.10;99.90
8655;DHT22;13500;52.514;13.462;2022-09-09T18:40:32;18.00;99.90
8655;DHT22;13500;52.514;13.462;2022-09-09T18:43:00;18.00;99.90
8655;DHT22;13500;52.514;13.462;2022-09-09T18:45:30;17.90;99.90
8655;DHT22;13500;52.514;13.462;2022-09-09T18:47:58;17.90;99.90
8655;DHT22;13500;52.514;13.462;2022-09-09T18:50:27;18.00;99.90
8655;DHT22;13500;52.514;13.462;2022-09-09T18:52:55;18.00;99.90
8655;DHT22;13500;52.514;13.462;2022-09-09T18:55:23;17.90;99.90
8655;DHT22;13500;52.514;13.462;2022-09-09T18:57:52;17.90;99.90
8655;DHT22;13500;52.514;13.462;2022-09-09T19:00:20;17.90;99.90
8655;DHT22;13500;52.514;13.462;2022-09-09T19:02:50;17.80;99.90
8655;DHT22;13500;52.514;13.462;2022-09-09T19:05:19;17.80;99.90
8655;DHT22;13500;52.514;13.462;2022-09-09T19:07:47;17.80;99.90
8655;DHT22;13500;52.514;13.462;2022-09-09T19:10:15;17.80;99.90
8655;DHT22;13500;52.514;13.462;2022-09-09T19:12:43;17.70;99.90
8655;DHT22;13500;52.514;13.462;2022-09-09T19:15:12;17.70;99.90
8655;DHT22;13500;52.514;13.462;2022-09-09T19:17:41;17.60;99.90
8655;DHT22;13500;52.514;13.462;2022-09-09T19:20:10;17.60;99.90
8655;DHT22;13500;52.514;13.462;2022-09-09T19:22:39;17.60;99.90
8655;DHT22;13500;52.514;13.462;2022-09-09T19:25:07;17.60;99.90
8655;DHT22;13500;52.514;13.462;2022-09-09T19:27:35;17.60;99.90
8655;DHT22;13500;52.514;13.462;2022-09-09T19:30:04;17.60;99.90
8655;DHT22;13500;52.514;13.462;2022-09-09T19:32:32;17.50;99.90
8655;DHT22;13500;52.514;13.462;2022-09-09T19:35:20;17.50;99.90
8655;DHT22;13500;52.514;13.462;2022-09-09T19:37:48;17.40;99.90
8655;DHT22;13500;52.514;13.462;2022-09-09T19:40:16;17.40;99.90
8655;DHT22;13500;52.514;13.462;2022-09-09T19:42:47;17.40;99.90
8655;DHT22;13500;52.514;13.462;2022-09-09T19:45:19;17.40;99.90
8655;DHT22;13500;52.514;13.462;2022-09-09T19:47:48;17.30;99.90
8655;DHT22;13500;52.514;13.462;2022-09-09T19:50:16;17.30;99.90
8655;DHT22;13500;52.514;13.462;2022-09-09T19:52:46;17.30;99.90
8655;DHT22;13500;52.514;13.462;2022-09-09T19:55:14;17.30;99.90
8655;DHT22;13500;52.514;13.462;2022-09-09T19:57:42;17.20;99.90
8655;DHT22;13500;52.514;13.462;2022-09-09T20:00:11;17.20;99.90
8655;DHT22;13500;52.514;13.462;2022-09-09T20:02:39;17.10;99.90
8655;DHT22;13500;52.514;13.462;2022-09-09T20:05:30;17.10;99.90
8655;DHT22;13500;52.514;13.462;2022-09-09T20:08:00;17.10;99.90
8655;DHT22;13500;52.514;13.462;2022-09-09T20:10:28;17.10;99.90
8655;DHT22;13500;52.514;13.462;2022-09-09T20:12:57;17.10;99.90
8655;DHT22;13500;52.514;13.462;2022-09-09T20:15:26;17.10;99.90
8655;DHT22;13500;52.514;13.462;2022-09-09T20:17:55;17.10;99.90
8655;DHT22;13500;52.514;13.462;2022-09-09T20:20:23;17.10;99.90
8655;DHT22;13500;52.514;13.462;2022-09-09T20:22:51;17.10;99.90
8655;DHT22;13500;52.514;13.462;2022-09-09T20:25:21;17.00;99.90
8655;DHT22;13500;52.514;13.462;2022-09-09T20:27:50;17.00;99.90
8655;DHT22;13500;52.514;13.462;2022-09-09T20:30:18;16.90;99.90
8655;DHT22;13500;52.514;13.462;2022-09-09T20:32:46;16.90;99.90
8655;DHT22;13500;52.514;13.462;2022-09-09T20:35:14;17.00;99.90
8655;DHT22;13500;52.514;13.462;2022-09-09T20:37:42;16.90;99.90
8655;DHT22;13500;52.514;13.462;2022-09-09T20:40:10;16.90;99.90
8655;DHT22;13500;52.514;13.462;2022-09-09T20:42:40;16.80;99.90
8655;DHT22;13500;52.514;13.462;2022-09-09T20:45:09;16.80;99.90
8655;DHT22;13500;52.514;13.462;2022-09-09T20:47:41;16.70;99.90
8655;DHT22;13500;52.514;13.462;2022-09-09T20:50:09;16.70;99.90
8655;DHT22;13500;52.514;13.462;2022-09-09T20:52:37;16.70;99.90
8655;DHT22;13500;52.514;13.462;2022-09-09T20:55:06;16.60;99.90
8655;DHT22;13500;52.514;13.462;2022-09-09T20:57:35;16.60;99.90
8655;DHT22;13500;52.514;13.462;2022-09-09T21:00:05;16.60;99.90
8655;DHT22;13500;52.514;13.462;2022-09-09T21:02:34;16.50;99.90
8655;DHT22;13500;52.514;13.462;2022-09-09T21:05:02;16.50;99.90
8655;DHT22;13500;52.514;13.462;2022-09-09T21:07:30;16.50;99.90
8655;DHT22;13500;52.514;13.462;2022-09-09T21:09:58;16.50;99.90
8655;DHT22;13500;52.514;13.462;2022-09-09T21:12:27;16.50;99.90
8655;DHT22;13500;52.514;13.462;2022-09-09T21:14:56;16.50;99.90
8655;DHT22;13500;52.514;13.462;2022-09-09T21:17:25;16.50;99.90
8655;DHT22;13500;52.514;13.462;2022-09-09T21:19:53;16.40;99.90
8655;DHT22;13500;52.514;13.462;2022-09-09T21:22:23;16.40;99.90
8655;DHT22;13500;52.514;13.462;2022-09-09T21:24:51;16.40;99.90
8655;DHT22;13500;52.514;13.462;2022-09-09T21:27:19;16.30;99.90
8655;DHT22;13500;52.514;13.462;2022-09-09T21:29:48;16.30;99.90
8655;DHT22;13500;52.514;13.462;2022-09-09T21:32:16;16.30;99.90
8655;DHT22;13500;52.514;13.462;2022-09-09T21:34:46;16.30;99.90
8655;DHT22;13500;52.514;13.462;2022-09-09T21:37:14;16.20;99.90
8655;DHT22;13500;52.514;13.462;2022-09-09T21:39:42;16.30;99.90
8655;DHT22;13500;52.514;13.462;2022-09-09T21:42:10;16.30;99.90
8655;DHT22;13500;52.514;13.462;2022-09-09T21:44:40;16.20;99.90
8655;DHT22;13500;52.514;13.462;2022-09-09T21:47:08;16.10;99.90
8655;DHT22;13500;52.514;13.462;2022-09-09T21:49:36;16.00;99.90
8655;DHT22;13500;52.514;13.462;2022-09-09T21:52:05;16.00;99.90
8655;DHT22;13500;52.514;13.462;2022-09-09T21:54:33;16.00;99.90
8655;DHT22;13500;52.514;13.462;2022-09-09T21:57:05;16.00;99.90
8655;DHT22;13500;52.514;13.462;2022-09-09T21:59:33;15.90;99.90
8655;DHT22;13500;52.514;13.462;2022-09-09T22:02:01;15.90;99.90
8655;DHT22;13500;52.514;13.462;2022-09-09T22:04:30;15.90;99.90
8655;DHT22;13500;52.514;13.462;2022-09-09T22:06:58;15.90;99.90
8655;DHT22;13500;52.514;13.462;2022-09-09T22:09:27;15.90;99.90
8655;DHT22;13500;52.514;13.462;2022-09-09T22:11:55;15.90;99.90
8655;DHT22;13500;52.514;13.462;2022-09-09T22:14:24;15.80;99.90
8655;DHT22;13500;52.514;13.462;2022-09-09T22:16:52;15.80;99.90
8655;DHT22;13500;52.514;13.462;2022-09-09T22:19:20;15.80;99.90
8655;DHT22;13500;52.514;13.462;2022-09-09T22:21:48;15.90;99.90
8655;DHT22;13500;52.514;13.462;2022-09-09T22:24:16;15.90;99.90
8655;DHT22;13500;52.514;13.462;2022-09-09T22:26:46;15.90;99.90
8655;DHT22;13500;52.514;13.462;2022-09-09T22:29:14;15.90;99.90
8655;DHT22;13500;52.514;13.462;2022-09-09T22:31:43;15.80;99.90
8655;DHT22;13500;52.514;13.462;2022-09-09T22:34:11;15.90;99.90
8655;DHT22;13500;52.514;13.462;2022-09-09T22:36:39;15.90;99.90
8655;DHT22;13500;52.514;13.462;2022-09-09T22:39:07;15.90;99.90
8655;DHT22;13500;52.514;13.462;2022-09-09T22:41:35;15.80;99.90
8655;DHT22;13500;52.514;13.462;2022-09-09T22:44:06;15.80;99.90
8655;DHT22;13500;52.514;13.462;2022-09-09T22:46:36;15.80;99.90
8655;DHT22;13500;52.514;13.462;2022-09-09T22:49:05;15.80;99.90
8655;DHT22;13500;52.514;13.462;2022-09-09T22:51:33;15.80;99.90
8655;DHT22;13500;52.514;13.462;2022-09-09T22:54:03;15.70;99.90
8655;DHT22;13500;52.514;13.462;2022-09-09T22:56:31;15.70;99.90
8655;DHT22;13500;52.514;13.462;2022-09-09T22:58:59;15.70;99.90
8655;DHT22;13500;52.514;13.462;2022-09-09T23:01:29;15.70;99.90
8655;DHT22;13500;52.514;13.462;2022-09-09T23:03:57;15.70;99.90
8655;DHT22;13500;52.514;13.462;2022-09-09T23:06:28;15.70;99.90
8655;DHT22;13500;52.514;13.462;2022-09-09T23:08:59;15.60;99.90
8655;DHT22;13500;52.514;13.462;2022-09-09T23:11:29;15.70;99.90
8655;DHT22;13500;52.514;13.462;2022-09-09T23:13:59;15.60;99.90
8655;DHT22;13500;52.514;13.462;2022-09-09T23:16:30;15.60;99.90
8655;DHT22;13500;52.514;13.462;2022-09-09T23:18:59;15.60;99.90
8655;DHT22;13500;52.514;13.462;2022-09-09T23:21:29;15.60;99.90
8655;DHT22;13500;52.514;13.462;2022-09-09T23:23:58;15.60;99.90
8655;DHT22;13500;52.514;13.462;2022-09-09T23:26:26;15.60;99.90
8655;DHT22;13500;52.514;13.462;2022-09-09T23:28:58;15.60;99.90
8655;DHT22;13500;52.514;13.462;2022-09-09T23:31:30;15.60;99.90
8655;DHT22;13500;52.514;13.462;2022-09-09T23:33:59;15.60;99.90
8655;DHT22;13500;52.514;13.462;2022-09-09T23:36:28;15.60;99.90
8655;DHT22;13500;52.514;13.462;2022-09-09T23:38:56;15.70;99.90
8655;DHT22;13500;52.514;13.462;2022-09-09T23:41:25;15.60;99.90
8655;DHT22;13500;52.514;13.462;2022-09-09T23:43:54;15.60;99.90
8655;DHT22;13500;52.514;13.462;2022-09-09T23:46:24;15.60;99.90
8655;DHT22;13500;52.514;13.462;2022-09-09T23:48:57;15.60;99.90
8655;DHT22;13500;52.514;13.462;2022-09-09T23:51:27;15.60;99.90
8655;DHT22;13500;52.514;13.462;2022-09-09T23:53:57;15.60;99.90
8655;DHT22;13500;52.514;13.462;2022-09-09T23:56:30;15.60;99.90
8655;DHT22;13500;52.514;13.462;2022-09-09T23:58:59;15.60;99.90
